Time;durP1;ratioP1;P1;durP2;ratioP2;P2;SDS_P1;SDS_P2;PMS_P1;PMS_P2;Temp;Humidity;BMP_temperature;BMP_pressure;BME280_temperature;BME280_humidity;BME280_pressure;Samples;Min_cycle;Max_cycle;Signal;HPM_P1;HPM_P2
2022/12/26 00:00:43;;;;;;;;;;;13.30;99.90;;;;;;5030004;28;20462;-64
2022/12/26 00:03:08;;;;;;;;;;;13.60;99.90;;;;;;5027024;28;20263;-63
2022/12/26 00:05:34;;;;;;;;;;;13.60;99.90;;;;;;5029530;28;19917;-63
2022/12/26 00:08:00;;;;;;;;;;;13.50;99.90;;;;;;5029684;28;19909;-63
2022/12/26 00:10:25;;;;;;;;;;;13.40;99.90;;;;;;5029404;28;20456;-63
2022/12/26 00:12:51;;;;;;;;;;;13.40;99.90;;;;;;5031420;28;20410;-63
2022/12/26 00:15:16;;;;;;;;;;;13.40;99.90;;;;;;5027263;28;19913;-63
2022/12/26 00:17:42;;;;;;;;;;;13.40;99.90;;;;;;5031076;28;19913;-61
2022/12/26 00:20:07;;;;;;;;;;;13.30;99.90;;;;;;5028565;28;20410;-63
2022/12/26 00:22:33;;;;;;;;;;;13.30;99.90;;;;;;5020981;28;19925;-63
2022/12/26 00:24:58;;;;;;;;;;;13.30;99.90;;;;;;5025242;28;19939;-63
2022/12/26 00:27:24;;;;;;;;;;;13.40;99.90;;;;;;5031667;28;19913;-64
2022/12/26 00:29:49;;;;;;;;;;;13.40;99.90;;;;;;5028871;28;19909;-64
2022/12/26 00:32:14;;;;;;;;;;;13.40;99.90;;;;;;5026743;28;19965;-64
2022/12/26 00:34:40;;;;;;;;;;;13.30;99.90;;;;;;5027918;28;19910;-64
2022/12/26 00:37:05;;;;;;;;;;;13.40;99.90;;;;;;5026306;28;20399;-64
2022/12/26 00:39:31;;;;;;;;;;;13.30;99.90;;;;;;5028279;28;19909;-64
2022/12/26 00:41:56;;;;;;;;;;;13.40;99.90;;;;;;5029100;28;19925;-62
2022/12/26 00:44:22;;;;;;;;;;;13.40;99.90;;;;;;5026457;28;19917;-64
2022/12/26 00:46:47;;;;;;;;;;;13.30;99.90;;;;;;5027751;28;19913;-64
2022/12/26 00:49:13;;;;;;;;;;;13.30;99.90;;;;;;5029697;28;19920;-64
2022/12/26 00:51:38;;;;;;;;;;;13.30;99.90;;;;;;5029945;28;20280;-62
2022/12/26 00:54:04;;;;;;;;;;;13.20;99.90;;;;;;5028167;28;19914;-63
2022/12/26 00:56:29;;;;;;;;;;;13.30;99.90;;;;;;5029233;28;20541;-64
2022/12/26 00:58:54;;;;;;;;;;;13.40;99.90;;;;;;5028353;28;19986;-63
2022/12/26 01:01:21;;;;;;;;;;;13.40;99.90;;;;;;5029439;28;19920;-64
2022/12/26 01:03:47;;;;;;;;;;;13.30;99.90;;;;;;5028717;28;19917;-63
2022/12/26 01:06:13;;;;;;;;;;;13.30;99.90;;;;;;5029892;28;19969;-63
2022/12/26 01:08:39;;;;;;;;;;;13.20;99.90;;;;;;5026828;28;19910;-64
2022/12/26 01:11:06;;;;;;;;;;;13.20;99.90;;;;;;5028776;28;20490;-63
2022/12/26 01:13:31;;;;;;;;;;;13.30;99.90;;;;;;5027646;28;19952;-64
2022/12/26 01:15:57;;;;;;;;;;;13.20;99.90;;;;;;5028591;28;19968;-64
2022/12/26 01:18:22;;;;;;;;;;;13.10;99.90;;;;;;5029580;28;19927;-63
2022/12/26 01:20:48;;;;;;;;;;;13.10;99.90;;;;;;5033338;28;19920;-63
2022/12/26 01:23:13;;;;;;;;;;;13.10;99.90;;;;;;5032245;28;19909;-63
2022/12/26 01:25:39;;;;;;;;;;;13.10;99.90;;;;;;5032385;28;19921;-63
2022/12/26 01:28:04;;;;;;;;;;;13.10;99.90;;;;;;5028624;28;19959;-63
2022/12/26 01:30:30;;;;;;;;;;;13.20;99.90;;;;;;5032018;28;19920;-63
2022/12/26 01:32:55;;;;;;;;;;;13.10;99.90;;;;;;5031253;28;20402;-63
2022/12/26 01:35:21;;;;;;;;;;;13.00;99.90;;;;;;5031979;28;19936;-64
2022/12/26 01:37:46;;;;;;;;;;;13.00;99.90;;;;;;5030011;28;20193;-63
2022/12/26 01:40:12;;;;;;;;;;;12.90;99.90;;;;;;5030588;28;19967;-63
2022/12/26 01:42:38;;;;;;;;;;;13.00;99.90;;;;;;5028945;28;19963;-62
2022/12/26 01:45:08;;;;;;;;;;;13.00;99.90;;;;;;5031413;28;19913;-62
2022/12/26 01:47:55;;;;;;;;;;;13.00;99.90;;;;;;5030359;28;19920;-64
2022/12/26 01:50:34;;;;;;;;;;;13.00;99.90;;;;;;5031177;28;19909;-63
2022/12/26 01:53:03;;;;;;;;;;;12.90;99.90;;;;;;5032948;28;19935;-63
2022/12/26 01:55:29;;;;;;;;;;;13.00;99.90;;;;;;5025890;28;19932;-63
2022/12/26 01:58:00;;;;;;;;;;;12.90;99.90;;;;;;5029333;28;20371;-64
2022/12/26 02:00:26;;;;;;;;;;;12.90;99.90;;;;;;5027117;28;19917;-63
2022/12/26 02:05:36;;;;;;;;;;;13.00;99.90;;;;;;5032371;28;19987;-64
2022/12/26 02:08:03;;;;;;;;;;;13.00;99.90;;;;;;5030263;28;20656;-63
2022/12/26 02:10:30;;;;;;;;;;;13.10;99.90;;;;;;5026557;28;19957;-63
2022/12/26 02:12:56;;;;;;;;;;;13.10;99.90;;;;;;5029189;28;19913;-64
2022/12/26 02:15:22;;;;;;;;;;;13.10;99.90;;;;;;5030033;28;19961;-63
2022/12/26 02:17:47;;;;;;;;;;;13.10;99.90;;;;;;5030187;28;20403;-63
2022/12/26 02:20:24;;;;;;;;;;;13.00;99.90;;;;;;5031294;28;19913;-63
2022/12/26 02:22:53;;;;;;;;;;;13.00;99.90;;;;;;5027511;28;20398;-63
2022/12/26 02:25:21;;;;;;;;;;;13.00;99.90;;;;;;5027527;28;19917;-63
2022/12/26 02:28:01;;;;;;;;;;;13.00;99.90;;;;;;5030267;28;19913;-64
2022/12/26 02:30:32;;;;;;;;;;;13.00;99.90;;;;;;5028814;28;20276;-63
2022/12/26 02:33:10;;;;;;;;;;;13.00;99.90;;;;;;5029616;28;19917;-63
2022/12/26 02:35:41;;;;;;;;;;;13.10;99.90;;;;;;5030360;28;19913;-62
2022/12/26 02:38:19;;;;;;;;;;;13.00;99.90;;;;;;5027513;28;19917;-63
2022/12/26 02:41:04;;;;;;;;;;;13.20;99.90;;;;;;5027050;28;19952;-63
2022/12/26 02:43:35;;;;;;;;;;;13.20;99.90;;;;;;5027867;28;19924;-63
2022/12/26 02:48:57;;;;;;;;;;;13.20;99.90;;;;;;5029526;28;19920;-63
2022/12/26 03:14:24;;;;;;;;;;;12.80;99.90;;;;;;5029503;28;19919;-63
2022/12/26 03:19:56;;;;;;;;;;;12.80;99.90;;;;;;5029635;28;19920;-63
2022/12/26 03:22:32;;;;;;;;;;;12.70;99.90;;;;;;5028500;28;19921;-63
2022/12/26 03:27:47;;;;;;;;;;;12.70;99.90;;;;;;5026590;28;20337;-63
2022/12/26 03:32:56;;;;;;;;;;;12.60;99.90;;;;;;5025599;28;20014;-64
2022/12/26 03:35:23;;;;;;;;;;;12.50;99.90;;;;;;5029656;28;19976;-62
2022/12/26 03:38:06;;;;;;;;;;;12.50;99.90;;;;;;5028994;28;19975;-64
2022/12/26 04:20:23;;;;;;;;;;;12.50;99.90;;;;;;5045356;28;20352;-67
2022/12/26 04:45:13;;;;;;;;;;;12.50;99.90;;;;;;5038700;28;19935;-68
2022/12/26 04:50:10;;;;;;;;;;;12.30;99.90;;;;;;5045869;28;19912;-68
2022/12/26 04:50:24;;;;;;;;;;;12.30;99.90;;;;;;5047610;28;19943;-69
2022/12/26 04:52:58;;;;;;;;;;;12.20;99.90;;;;;;5052506;28;19917;-67
2022/12/26 04:55:30;;;;;;;;;;;12.10;99.90;;;;;;5050561;28;19986;-68
2022/12/26 04:57:57;;;;;;;;;;;12.10;99.90;;;;;;5047139;28;19956;-69
2022/12/26 05:00:23;;;;;;;;;;;12.00;99.90;;;;;;5044225;28;19967;-68
2022/12/26 05:11:13;;;;;;;;;;;12.00;99.90;;;;;;5047240;28;19971;-70
2022/12/26 05:13:38;;;;;;;;;;;12.00;99.90;;;;;;5044724;28;19945;-68
2022/12/26 05:29:45;;;;;;;;;;;11.50;99.90;;;;;;5051335;28;20402;-68
2022/12/26 05:32:10;;;;;;;;;;;11.50;99.90;;;;;;5045303;28;19913;-68
2022/12/26 05:34:36;;;;;;;;;;;11.40;99.90;;;;;;5051850;28;19916;-69
2022/12/26 05:37:01;;;;;;;;;;;11.40;99.90;;;;;;5048902;28;19913;-70
2022/12/26 05:39:27;;;;;;;;;;;11.30;99.90;;;;;;5050172;28;19920;-69
2022/12/26 05:41:52;;;;;;;;;;;11.20;99.90;;;;;;5051685;28;19960;-68
2022/12/26 05:44:18;;;;;;;;;;;11.20;99.90;;;;;;5046626;28;19967;-69
2022/12/26 05:46:45;;;;;;;;;;;11.20;99.90;;;;;;5049919;28;20516;-69
2022/12/26 05:49:11;;;;;;;;;;;11.10;99.90;;;;;;5046597;28;19995;-69
2022/12/26 05:51:36;;;;;;;;;;;11.10;99.90;;;;;;5046548;28;19995;-69
2022/12/26 05:54:02;;;;;;;;;;;11.10;99.90;;;;;;5050295;28;20329;-69
2022/12/26 05:56:27;;;;;;;;;;;11.00;99.90;;;;;;5052509;28;19939;-70
2022/12/26 05:58:54;;;;;;;;;;;11.10;99.90;;;;;;5048800;28;20513;-68
2022/12/26 06:01:20;;;;;;;;;;;11.10;99.90;;;;;;5050782;28;19968;-68
2022/12/26 06:03:47;;;;;;;;;;;11.10;99.90;;;;;;5049690;28;19944;-68
2022/12/26 06:06:12;;;;;;;;;;;11.00;99.90;;;;;;5050471;28;19952;-68
2022/12/26 06:08:38;;;;;;;;;;;11.00;99.90;;;;;;5049196;28;19952;-68
2022/12/26 06:11:07;;;;;;;;;;;11.00;99.90;;;;;;5048028;28;20409;-68
2022/12/26 06:13:33;;;;;;;;;;;11.00;99.90;;;;;;5046098;28;19999;-70
2022/12/26 06:16:02;;;;;;;;;;;11.00;99.90;;;;;;5048695;28;20083;-69
2022/12/26 06:18:27;;;;;;;;;;;11.00;99.90;;;;;;5046416;28;19916;-69
2022/12/26 06:20:53;;;;;;;;;;;10.90;99.90;;;;;;5048964;28;20024;-68
2022/12/26 06:23:18;;;;;;;;;;;10.90;99.90;;;;;;5043016;28;19960;-67
2022/12/26 06:25:44;;;;;;;;;;;10.90;99.90;;;;;;5042984;28;20432;-67
2022/12/26 06:28:09;;;;;;;;;;;10.80;99.90;;;;;;5044963;28;20884;-68
2022/12/26 06:30:35;;;;;;;;;;;10.80;99.90;;;;;;5044598;28;19943;-67
2022/12/26 06:33:00;;;;;;;;;;;10.80;99.90;;;;;;5045221;28;19920;-68
2022/12/26 06:35:26;;;;;;;;;;;10.80;99.90;;;;;;5045181;28;19917;-68
2022/12/26 06:37:51;;;;;;;;;;;10.80;99.90;;;;;;5041771;28;19913;-67
2022/12/26 06:40:17;;;;;;;;;;;10.80;99.90;;;;;;5039457;28;19913;-67
2022/12/26 06:42:42;;;;;;;;;;;10.80;99.90;;;;;;5038451;28;19917;-66
2022/12/26 06:45:08;;;;;;;;;;;10.80;99.90;;;;;;5040736;28;19925;-67
2022/12/26 06:47:33;;;;;;;;;;;10.90;99.90;;;;;;5048725;28;19965;-68
2022/12/26 06:49:59;;;;;;;;;;;10.90;99.90;;;;;;5046678;28;19913;-67
2022/12/26 06:52:24;;;;;;;;;;;10.90;99.90;;;;;;5040886;28;20027;-67
2022/12/26 06:54:50;;;;;;;;;;;10.80;99.90;;;;;;5046274;28;19930;-67
2022/12/26 06:57:15;;;;;;;;;;;10.80;99.90;;;;;;5049076;28;19936;-68
2022/12/26 06:59:41;;;;;;;;;;;10.80;99.90;;;;;;5045303;28;19948;-68
2022/12/26 07:02:08;;;;;;;;;;;10.80;99.90;;;;;;5038736;28;19921;-69
2022/12/26 07:04:33;;;;;;;;;;;10.80;99.90;;;;;;5043407;28;19916;-67
2022/12/26 07:06:59;;;;;;;;;;;10.80;99.90;;;;;;5040875;28;19919;-68
2022/12/26 07:09:24;;;;;;;;;;;10.80;99.90;;;;;;5045975;28;19947;-69
2022/12/26 07:11:50;;;;;;;;;;;10.70;99.90;;;;;;5047423;28;19917;-67
2022/12/26 07:14:15;;;;;;;;;;;10.70;99.90;;;;;;5044013;28;19917;-68
2022/12/26 07:16:42;;;;;;;;;;;10.80;99.90;;;;;;5045710;28;19913;-70
2022/12/26 07:19:09;;;;;;;;;;;10.70;99.90;;;;;;5044590;28;20110;-68
2022/12/26 07:21:34;;;;;;;;;;;10.60;99.90;;;;;;5045419;28;19933;-68
2022/12/26 07:24:00;;;;;;;;;;;10.70;99.90;;;;;;5050817;28;19955;-68
2022/12/26 07:26:25;;;;;;;;;;;10.70;99.90;;;;;;5043990;28;20421;-67
2022/12/26 07:28:55;;;;;;;;;;;10.70;99.90;;;;;;5050930;28;19985;-67
2022/12/26 07:31:21;;;;;;;;;;;10.80;99.90;;;;;;5049576;28;20007;-67
2022/12/26 07:33:47;;;;;;;;;;;10.70;99.90;;;;;;5049954;28;19967;-68
2022/12/26 07:36:13;;;;;;;;;;;10.70;99.90;;;;;;5045461;28;19909;-68
2022/12/26 07:38:38;;;;;;;;;;;10.70;99.90;;;;;;5041589;28;19936;-68
2022/12/26 07:41:56;;;;;;;;;;;10.70;99.90;;;;;;5040785;28;19928;-67
2022/12/26 07:43:49;;;;;;;;;;;10.70;99.90;;;;;;5045246;28;20267;-66
2022/12/26 07:46:15;;;;;;;;;;;10.70;99.90;;;;;;5040996;28;19920;-67
2022/12/26 07:48:40;;;;;;;;;;;10.70;99.90;;;;;;5041848;28;19920;-67
2022/12/26 07:51:06;;;;;;;;;;;10.60;99.90;;;;;;5041773;28;19912;-67
2022/12/26 07:53:31;;;;;;;;;;;10.60;99.90;;;;;;5046892;28;19967;-69
2022/12/26 07:55:59;;;;;;;;;;;10.60;99.90;;;;;;5040173;28;19920;-68
2022/12/26 07:58:25;;;;;;;;;;;10.50;99.90;;;;;;5042840;28;20355;-66
2022/12/26 08:00:50;;;;;;;;;;;10.50;99.90;;;;;;5038899;28;20008;-66
2022/12/26 08:03:16;;;;;;;;;;;10.50;99.90;;;;;;5041855;28;19924;-66
2022/12/26 08:05:45;;;;;;;;;;;10.40;99.90;;;;;;5041649;28;19971;-66
2022/12/26 08:08:10;;;;;;;;;;;10.40;99.90;;;;;;5046268;28;19917;-67
2022/12/26 08:10:36;;;;;;;;;;;10.40;99.90;;;;;;5042509;28;19921;-67
2022/12/26 08:13:01;;;;;;;;;;;10.40;99.90;;;;;;5043309;28;20030;-68
2022/12/26 08:15:27;;;;;;;;;;;10.40;99.90;;;;;;5043715;28;19944;-67
2022/12/26 08:17:52;;;;;;;;;;;10.40;99.90;;;;;;5046191;28;20029;-62
2022/12/26 08:20:18;;;;;;;;;;;10.40;99.90;;;;;;5040766;28;19921;-65
2022/12/26 08:22:43;;;;;;;;;;;10.40;99.90;;;;;;5045519;28;19929;-64
2022/12/26 08:25:09;;;;;;;;;;;10.50;99.90;;;;;;5044866;28;19920;-62
2022/12/26 08:27:34;;;;;;;;;;;10.40;99.90;;;;;;5047810;28;19921;-63
2022/12/26 08:30:00;;;;;;;;;;;10.50;99.90;;;;;;5042072;28;19987;-64
2022/12/26 08:32:25;;;;;;;;;;;10.60;99.90;;;;;;5041189;28;19921;-63
2022/12/26 08:34:51;;;;;;;;;;;10.50;99.90;;;;;;5043912;28;19912;-62
2022/12/26 08:37:16;;;;;;;;;;;10.50;99.90;;;;;;5045184;28;20008;-62
2022/12/26 08:39:42;;;;;;;;;;;10.50;99.90;;;;;;5047742;28;20299;-63
2022/12/26 08:42:07;;;;;;;;;;;10.60;99.90;;;;;;5044582;28;19928;-63
2022/12/26 08:44:32;;;;;;;;;;;10.70;99.90;;;;;;5041763;28;19916;-63
2022/12/26 08:46:58;;;;;;;;;;;10.80;99.90;;;;;;5041541;28;19956;-62
2022/12/26 08:52:26;;;;;;;;;;;10.80;99.90;;;;;;5035082;28;19979;-64
2022/12/26 08:54:52;;;;;;;;;;;10.90;99.90;;;;;;5042463;28;20296;-63
2022/12/26 08:57:17;;;;;;;;;;;10.90;99.90;;;;;;5043061;28;19920;-64
2022/12/26 08:59:43;;;;;;;;;;;10.90;99.90;;;;;;5039471;28;20375;-64
2022/12/26 09:02:11;;;;;;;;;;;11.00;99.90;;;;;;5043781;28;19939;-67
2022/12/26 09:04:37;;;;;;;;;;;11.00;99.90;;;;;;5042438;28;19925;-65
2022/12/26 09:07:02;;;;;;;;;;;10.90;99.90;;;;;;5041420;28;19983;-65
2022/12/26 09:09:28;;;;;;;;;;;10.90;99.90;;;;;;5044725;28;19920;-69
2022/12/26 09:11:53;;;;;;;;;;;11.00;99.90;;;;;;5041400;28;19913;-65
2022/12/26 09:14:19;;;;;;;;;;;11.00;99.90;;;;;;5041835;28;21595;-66
2022/12/26 09:16:47;;;;;;;;;;;11.20;99.90;;;;;;5038103;28;20357;-66
2022/12/26 09:19:15;;;;;;;;;;;11.30;99.90;;;;;;5038001;28;20429;-69
2022/12/26 09:21:41;;;;;;;;;;;11.20;99.90;;;;;;5042035;28;20011;-66
2022/12/26 09:24:09;;;;;;;;;;;11.10;99.90;;;;;;5040173;28;21063;-63
2022/12/26 09:26:34;;;;;;;;;;;11.30;99.90;;;;;;5036799;28;19921;-65
2022/12/26 09:29:00;;;;;;;;;;;11.40;99.90;;;;;;5043697;28;19923;-64
2022/12/26 09:31:29;;;;;;;;;;;11.50;99.90;;;;;;5043197;28;19924;-66
2022/12/26 09:33:55;;;;;;;;;;;11.50;99.90;;;;;;5044574;28;19979;-64
2022/12/26 09:36:22;;;;;;;;;;;11.40;99.90;;;;;;5040363;28;19928;-65
2022/12/26 09:38:48;;;;;;;;;;;11.40;99.90;;;;;;5047137;28;19920;-65
2022/12/26 09:41:22;;;;;;;;;;;11.40;99.90;;;;;;5049327;28;20384;-64
2022/12/26 09:43:58;;;;;;;;;;;11.40;99.90;;;;;;5047830;28;20278;-64
2022/12/26 09:46:43;;;;;;;;;;;11.40;99.90;;;;;;5044251;28;19913;-63
2022/12/26 09:49:19;;;;;;;;;;;11.50;99.90;;;;;;5046840;28;20323;-65
2022/12/26 09:51:47;;;;;;;;;;;11.50;99.90;;;;;;5047371;28;19998;-64
2022/12/26 09:54:15;;;;;;;;;;;11.60;99.90;;;;;;5048577;28;19940;-67
2022/12/26 09:56:41;;;;;;;;;;;11.70;99.90;;;;;;5045485;28;19917;-65
2022/12/26 09:59:15;;;;;;;;;;;11.60;99.90;;;;;;5043310;28;19913;-64
2022/12/26 10:01:42;;;;;;;;;;;11.70;99.90;;;;;;5045572;28;19928;-64
2022/12/26 10:04:15;;;;;;;;;;;11.70;99.90;;;;;;5049230;28;19921;-65
2022/12/26 10:06:42;;;;;;;;;;;11.70;99.90;;;;;;5049861;28;19916;-64
2022/12/26 10:09:08;;;;;;;;;;;11.70;99.90;;;;;;5050026;28;19929;-66
2022/12/26 10:11:57;;;;;;;;;;;11.60;99.90;;;;;;5047810;28;19967;-64
2022/12/26 10:14:41;;;;;;;;;;;11.70;99.90;;;;;;5048514;28;19917;-64
2022/12/26 10:17:24;;;;;;;;;;;11.70;99.90;;;;;;5047027;28;20306;-65
2022/12/26 10:19:59;;;;;;;;;;;11.70;99.90;;;;;;5043311;28;19924;-64
2022/12/26 10:22:31;;;;;;;;;;;11.80;99.90;;;;;;5047639;28;19921;-65
2022/12/26 10:24:59;;;;;;;;;;;11.80;99.90;;;;;;5041492;28;19917;-65
2022/12/26 10:27:25;;;;;;;;;;;11.80;99.90;;;;;;5048795;28;19921;-64
2022/12/26 10:32:57;;;;;;;;;;;11.90;99.90;;;;;;5036784;28;19975;-60
2022/12/26 10:35:27;;;;;;;;;;;11.90;99.90;;;;;;5044954;28;19921;-60
2022/12/26 10:37:53;;;;;;;;;;;12.00;99.90;;;;;;5046096;28;19974;-61
2022/12/26 10:40:30;;;;;;;;;;;12.10;99.90;;;;;;5047721;28;19924;-62
2022/12/26 10:43:00;;;;;;;;;;;12.20;99.90;;;;;;5048444;28;20030;-61
2022/12/26 10:45:35;;;;;;;;;;;12.20;99.90;;;;;;5050597;28;20668;-62
2022/12/26 10:48:00;;;;;;;;;;;12.10;99.90;;;;;;5047626;28;19913;-61
2022/12/26 10:50:30;;;;;;;;;;;12.00;99.90;;;;;;5049366;28;20330;-61
2022/12/26 10:52:57;;;;;;;;;;;12.00;99.90;;;;;;5054455;28;19916;-62
2022/12/26 10:55:27;;;;;;;;;;;12.00;99.90;;;;;;5048692;28;19928;-60
2022/12/26 10:57:53;;;;;;;;;;;12.10;99.90;;;;;;5050099;28;19999;-61
2022/12/26 11:00:20;;;;;;;;;;;12.10;99.90;;;;;;5052181;28;20059;-62
2022/12/26 11:03:00;;;;;;;;;;;12.10;99.90;;;;;;5050696;28;20011;-61
2022/12/26 11:05:25;;;;;;;;;;;12.20;99.90;;;;;;5050918;28;19933;-62
2022/12/26 11:07:53;;;;;;;;;;;12.20;99.90;;;;;;5051954;28;19921;-62
2022/12/26 11:10:20;;;;;;;;;;;12.20;99.90;;;;;;5050538;28;19917;-62
2022/12/26 11:12:51;;;;;;;;;;;12.20;99.90;;;;;;5052874;28;19913;-62
2022/12/26 11:15:22;;;;;;;;;;;12.20;99.90;;;;;;5051506;28;20970;-61
2022/12/26 11:17:49;;;;;;;;;;;12.30;99.90;;;;;;5044812;28;19912;-62
2022/12/26 11:20:22;;;;;;;;;;;12.30;99.90;;;;;;5047480;28;19928;-60
2022/12/26 11:22:48;;;;;;;;;;;12.20;99.90;;;;;;5047191;28;20279;-61
2022/12/26 11:25:23;;;;;;;;;;;12.30;99.90;;;;;;5045796;28;19919;-62
2022/12/26 11:27:58;;;;;;;;;;;12.30;99.90;;;;;;5044943;28;20461;-62
2022/12/26 11:30:29;;;;;;;;;;;12.30;99.90;;;;;;5047477;28;20016;-62
2022/12/26 11:33:13;;;;;;;;;;;12.30;99.90;;;;;;5046968;28;20394;-62
2022/12/26 11:35:46;;;;;;;;;;;12.30;99.90;;;;;;5044671;28;19916;-62
2022/12/26 11:38:33;;;;;;;;;;;12.30;99.90;;;;;;5041654;28;19913;-63
2022/12/26 11:43:49;;;;;;;;;;;12.30;99.90;;;;;;5045694;28;19969;-62
2022/12/26 11:46:15;;;;;;;;;;;12.30;99.90;;;;;;5046558;28;20359;-62
2022/12/26 11:48:40;;;;;;;;;;;12.40;99.90;;;;;;5043373;28;19924;-60
2022/12/26 11:51:08;;;;;;;;;;;12.50;99.90;;;;;;5040668;28;20360;-63
2022/12/26 11:53:33;;;;;;;;;;;12.40;99.90;;;;;;5041804;28;19917;-62
2022/12/26 11:56:05;;;;;;;;;;;12.40;99.90;;;;;;5043170;28;19919;-61
2022/12/26 11:58:32;;;;;;;;;;;12.30;99.90;;;;;;5046388;28;19923;-62
2022/12/26 12:00:58;;;;;;;;;;;12.30;99.90;;;;;;5048115;28;20043;-62
2022/12/26 12:03:26;;;;;;;;;;;12.30;99.90;;;;;;5044933;28;20007;-61
2022/12/26 12:05:51;;;;;;;;;;;12.30;99.90;;;;;;5045838;28;20018;-61
2022/12/26 12:08:36;;;;;;;;;;;12.30;99.90;;;;;;5050188;28;19949;-63
2022/12/26 12:11:19;;;;;;;;;;;12.30;99.90;;;;;;5037163;28;20435;-63
2022/12/26 12:13:57;;;;;;;;;;;12.40;99.90;;;;;;5045660;28;19940;-64
2022/12/26 12:16:40;;;;;;;;;;;12.40;99.90;;;;;;5046734;28;20378;-62
2022/12/26 12:19:23;;;;;;;;;;;12.40;99.90;;;;;;5049947;28;19913;-62
2022/12/26 12:21:59;;;;;;;;;;;12.40;99.90;;;;;;5052496;28;19920;-60
2022/12/26 12:24:35;;;;;;;;;;;12.30;99.90;;;;;;5048755;28;19991;-61
2022/12/26 12:27:00;;;;;;;;;;;12.30;99.90;;;;;;5047236;28;19974;-63
2022/12/26 12:29:51;;;;;;;;;;;12.30;99.90;;;;;;5049810;28;19913;-62
2022/12/26 12:32:24;;;;;;;;;;;12.20;99.90;;;;;;5010139;28;19956;-60
2022/12/26 12:35:06;;;;;;;;;;;12.20;99.90;;;;;;5042532;28;19917;-64
2022/12/26 12:37:46;;;;;;;;;;;12.10;99.90;;;;;;5045067;28;19921;-60
2022/12/26 12:40:25;;;;;;;;;;;12.00;99.90;;;;;;5043632;28;20271;-60
2022/12/26 12:42:58;;;;;;;;;;;11.90;99.90;;;;;;5043685;28;20365;-61
2022/12/26 12:45:27;;;;;;;;;;;11.70;99.90;;;;;;5045122;28;19928;-61
2022/12/26 12:47:56;;;;;;;;;;;11.70;99.90;;;;;;5043667;28;19973;-62
2022/12/26 12:50:24;;;;;;;;;;;11.60;99.90;;;;;;5042269;28;19928;-61
2022/12/26 12:52:54;;;;;;;;;;;11.60;99.90;;;;;;5041411;28;20047;-61
2022/12/26 12:55:29;;;;;;;;;;;11.60;99.90;;;;;;5042211;28;19921;-60
2022/12/26 12:57:59;;;;;;;;;;;11.60;99.90;;;;;;5039835;28;19943;-60
2022/12/26 13:00:27;;;;;;;;;;;11.70;99.90;;;;;;5041586;28;19917;-61
2022/12/26 13:02:58;;;;;;;;;;;11.80;99.90;;;;;;5044334;28;19962;-61
2022/12/26 13:05:32;;;;;;;;;;;11.80;99.90;;;;;;5042232;28;19952;-58
2022/12/26 13:08:17;;;;;;;;;;;11.80;99.90;;;;;;5042236;28;20684;-61
2022/12/26 13:10:46;;;;;;;;;;;11.90;99.90;;;;;;5038804;28;19972;-60
2022/12/26 13:13:29;;;;;;;;;;;11.80;99.90;;;;;;5046353;28;19917;-60
2022/12/26 13:15:58;;;;;;;;;;;11.90;99.90;;;;;;5042440;28;20515;-61
2022/12/26 13:18:28;;;;;;;;;;;11.90;99.90;;;;;;5038366;28;20466;-62
2022/12/26 13:20:56;;;;;;;;;;;11.80;99.90;;;;;;5042472;28;19916;-61
2022/12/26 13:26:14;;;;;;;;;;;11.80;99.90;;;;;;5039926;28;19927;-60
2022/12/26 13:28:47;;;;;;;;;;;11.80;99.90;;;;;;5039913;28;20329;-61
2022/12/26 13:31:12;;;;;;;;;;;11.70;99.90;;;;;;5035855;28;19925;-60
2022/12/26 13:33:40;;;;;;;;;;;11.80;99.90;;;;;;5036252;28;19923;-59
2022/12/26 13:36:05;;;;;;;;;;;11.70;99.90;;;;;;5033798;28;20671;-60
2022/12/26 13:38:50;;;;;;;;;;;11.60;99.90;;;;;;5039714;28;19924;-60
2022/12/26 13:44:01;;;;;;;;;;;11.20;99.90;;;;;;5047900;28;19923;-60
2022/12/26 13:46:35;;;;;;;;;;;10.80;99.90;;;;;;5043523;28;20011;-60
2022/12/26 13:49:01;;;;;;;;;;;10.70;99.90;;;;;;5043173;28;19913;-61
2022/12/26 13:51:44;;;;;;;;;;;10.60;99.90;;;;;;5048593;28;19962;-59
2022/12/26 13:54:11;;;;;;;;;;;10.40;99.90;;;;;;5051037;28;19913;-59
2022/12/26 13:56:39;;;;;;;;;;;10.40;99.90;;;;;;5052189;28;20382;-62
2022/12/26 13:59:17;;;;;;;;;;;10.30;99.90;;;;;;5052117;28;19913;-60
2022/12/26 14:02:01;;;;;;;;;;;10.30;99.90;;;;;;5051411;28;19945;-61
2022/12/26 14:04:42;;;;;;;;;;;10.20;99.90;;;;;;5048944;28;19921;-61
2022/12/26 14:07:27;;;;;;;;;;;10.20;99.90;;;;;;5051380;28;19913;-62
2022/12/26 14:10:00;;;;;;;;;;;10.10;99.90;;;;;;5052357;28;19979;-62
2022/12/26 14:12:44;;;;;;;;;;;10.10;99.90;;;;;;5051886;28;19919;-62
2022/12/26 14:15:18;;;;;;;;;;;10.10;99.90;;;;;;5049034;28;20015;-63
2022/12/26 14:17:52;;;;;;;;;;;10.10;99.90;;;;;;5050761;28;19912;-62
2022/12/26 14:20:29;;;;;;;;;;;10.00;99.90;;;;;;5051885;28;19973;-62
2022/12/26 14:23:13;;;;;;;;;;;10.00;99.90;;;;;;5049685;28;20378;-62
2022/12/26 14:25:47;;;;;;;;;;;10.00;99.90;;;;;;5051096;28;19909;-61
2022/12/26 14:28:15;;;;;;;;;;;10.00;99.90;;;;;;5049954;28;20302;-61
2022/12/26 14:30:56;;;;;;;;;;;10.00;99.90;;;;;;5050132;28;20647;-59
2022/12/26 14:33:29;;;;;;;;;;;9.80;99.90;;;;;;5046064;28;19995;-61
2022/12/26 14:35:55;;;;;;;;;;;9.70;99.90;;;;;;5051527;28;19966;-61
2022/12/26 14:38:29;;;;;;;;;;;9.60;99.90;;;;;;5049779;28;19960;-62
2022/12/26 14:41:03;;;;;;;;;;;9.60;99.90;;;;;;5049401;28;20297;-61
2022/12/26 14:43:31;;;;;;;;;;;9.50;99.90;;;;;;5046877;28;19924;-60
2022/12/26 14:45:57;;;;;;;;;;;9.50;99.90;;;;;;5051939;28;19942;-60
2022/12/26 14:48:22;;;;;;;;;;;9.40;99.90;;;;;;5050225;28;19913;-61
2022/12/26 14:50:49;;;;;;;;;;;9.40;99.90;;;;;;5050799;28;19958;-61
2022/12/26 14:53:21;;;;;;;;;;;9.40;99.90;;;;;;5050543;28;19912;-62
2022/12/26 14:55:46;;;;;;;;;;;9.30;99.90;;;;;;5051739;28;19909;-61
2022/12/26 14:58:27;;;;;;;;;;;9.40;99.90;;;;;;5051090;28;20371;-61
2022/12/26 15:00:53;;;;;;;;;;;9.30;99.90;;;;;;5050026;28;19924;-59
2022/12/26 15:03:36;;;;;;;;;;;9.30;99.90;;;;;;5051155;28;19913;-62
2022/12/26 15:06:17;;;;;;;;;;;9.30;99.90;;;;;;5051730;28;19915;-61
2022/12/26 15:08:52;;;;;;;;;;;9.30;99.90;;;;;;5049832;28;20393;-61
2022/12/26 15:11:32;;;;;;;;;;;9.30;99.90;;;;;;5048207;28;19963;-62
2022/12/26 15:14:06;;;;;;;;;;;9.30;99.90;;;;;;5051105;28;20413;-59
2022/12/26 15:16:40;;;;;;;;;;;9.30;99.90;;;;;;5051131;28;20289;-61
2022/12/26 15:19:17;;;;;;;;;;;9.30;99.90;;;;;;5048862;28;19959;-61
2022/12/26 15:21:54;;;;;;;;;;;9.30;99.90;;;;;;5050206;28;19921;-61
2022/12/26 15:24:39;;;;;;;;;;;9.20;99.90;;;;;;5049873;28;20061;-60
2022/12/26 15:27:26;;;;;;;;;;;9.20;99.90;;;;;;5045959;28;19967;-62
2022/12/26 15:30:11;;;;;;;;;;;9.20;99.90;;;;;;5046750;28;19963;-62
2022/12/26 15:32:39;;;;;;;;;;;9.20;99.90;;;;;;5050833;28;19912;-62
2022/12/26 15:35:20;;;;;;;;;;;9.10;99.90;;;;;;5051106;28;19916;-59
2022/12/26 15:38:04;;;;;;;;;;;9.10;99.90;;;;;;5049912;28;20070;-62
2022/12/26 15:40:33;;;;;;;;;;;9.10;99.90;;;;;;5044803;28;19959;-63
2022/12/26 15:43:04;;;;;;;;;;;9.10;99.90;;;;;;5050436;28;19917;-63
2022/12/26 15:45:30;;;;;;;;;;;9.10;99.90;;;;;;5050521;28;19963;-62
2022/12/26 15:48:00;;;;;;;;;;;9.10;99.90;;;;;;5047419;28;20329;-62
2022/12/26 15:50:42;;;;;;;;;;;9.10;99.90;;;;;;5049919;28;19917;-62
2022/12/26 15:53:26;;;;;;;;;;;9.00;99.90;;;;;;5046454;28;19913;-61
2022/12/26 15:55:55;;;;;;;;;;;8.90;99.90;;;;;;5044017;28;19952;-62
2022/12/26 15:58:31;;;;;;;;;;;8.90;99.90;;;;;;5049867;28;19912;-61
2022/12/26 16:00:57;;;;;;;;;;;8.90;99.90;;;;;;5050239;28;19916;-62
2022/12/26 16:03:38;;;;;;;;;;;8.80;99.90;;;;;;5048261;28;21215;-62
2022/12/26 16:06:12;;;;;;;;;;;8.80;99.90;;;;;;5050506;28;19909;-62
2022/12/26 16:09:10;;;;;;;;;;;8.80;99.90;;;;;;5042636;28;19959;-62
2022/12/26 16:11:46;;;;;;;;;;;8.70;99.90;;;;;;5035678;28;19920;-61
2022/12/26 16:14:44;;;;;;;;;;;8.60;99.90;;;;;;5049422;28;19925;-60
2022/12/26 16:17:09;;;;;;;;;;;8.60;99.90;;;;;;5023762;28;19909;-61
2022/12/26 16:19:35;;;;;;;;;;;8.50;99.90;;;;;;5049113;28;19912;-62
2022/12/26 16:24:50;;;;;;;;;;;8.40;99.90;;;;;;5048712;28;19920;-62
2022/12/26 16:27:20;;;;;;;;;;;8.40;99.90;;;;;;5050514;28;19916;-61
2022/12/26 16:29:48;;;;;;;;;;;8.40;99.90;;;;;;5048755;28;19916;-61
2022/12/26 16:32:18;;;;;;;;;;;8.30;99.90;;;;;;5059958;23;20315;-62
2022/12/26 16:34:44;;;;;;;;;;;8.30;99.90;;;;;;5048351;28;19927;-61
2022/12/26 16:37:17;;;;;;;;;;;8.30;99.90;;;;;;5049512;28;19909;-59
2022/12/26 16:39:43;;;;;;;;;;;8.30;99.90;;;;;;5043696;28;19919;-62
2022/12/26 16:42:26;;;;;;;;;;;8.30;99.90;;;;;;5048191;28;19917;-61
2022/12/26 16:44:54;;;;;;;;;;;8.30;99.90;;;;;;5057725;28;19916;-63
2022/12/26 16:47:19;;;;;;;;;;;8.30;99.90;;;;;;5072258;28;19916;-63
2022/12/26 16:49:45;;;;;;;;;;;8.30;99.90;;;;;;5055062;28;19917;-61
2022/12/26 16:52:29;;;;;;;;;;;8.30;99.90;;;;;;5064048;28;19913;-62